sensor_id;sensor_type;location;lat;lon;timestamp;P1;durP1;ratioP1;P2;durP2;ratioP2
24216;SDS011;12356;49.386;8.688;2022-09-16T00:01:56;3.53;;;2.30;;
24216;SDS011;12356;49.386;8.688;2022-09-16T00:04:26;4.60;;;2.30;;
24216;SDS011;12356;49.386;8.688;2022-09-16T00:06:57;5.55;;;2.38;;
24216;SDS011;12356;49.386;8.688;2022-09-16T00:09:28;3.80;;;2.08;;
24216;SDS011;12356;49.386;8.688;2022-09-16T00:11:59;4.25;;;2.25;;
24216;SDS011;12356;49.386;8.688;2022-09-16T00:14:29;4.47;;;2.20;;
24216;SDS011;12356;49.386;8.688;2022-09-16T00:17:00;5.53;;;2.30;;
24216;SDS011;12356;49.386;8.688;2022-09-16T00:19:30;6.38;;;1.85;;
24216;SDS011;12356;49.386;8.688;2022-09-16T00:22:02;5.85;;;2.10;;
24216;SDS011;12356;49.386;8.688;2022-09-16T00:24:32;4.88;;;2.00;;
24216;SDS011;12356;49.386;8.688;2022-09-16T00:27:03;3.80;;;1.88;;
24216;SDS011;12356;49.386;8.688;2022-09-16T00:29:34;6.43;;;2.20;;
24216;SDS011;12356;49.386;8.688;2022-09-16T00:32:04;3.92;;;2.10;;
24216;SDS011;12356;49.386;8.688;2022-09-16T00:34:35;4.10;;;2.03;;
24216;SDS011;12356;49.386;8.688;2022-09-16T00:37:06;6.07;;;2.10;;
24216;SDS011;12356;49.386;8.688;2022-09-16T00:39:37;3.15;;;2.00;;
24216;SDS011;12356;49.386;8.688;2022-09-16T00:42:08;4.88;;;2.10;;
24216;SDS011;12356;49.386;8.688;2022-09-16T00:47:28;6.93;;;2.05;;
24216;SDS011;12356;49.386;8.688;2022-09-16T00:50:16;7.75;;;2.10;;
24216;SDS011;12356;49.386;8.688;2022-09-16T00:52:47;5.75;;;2.28;;
24216;SDS011;12356;49.386;8.688;2022-09-16T00:55:21;4.80;;;2.25;;
24216;SDS011;12356;49.386;8.688;2022-09-16T00:57:55;5.32;;;2.00;;
24216;SDS011;12356;49.386;8.688;2022-09-16T01:00:29;5.30;;;2.10;;
24216;SDS011;12356;49.386;8.688;2022-09-16T01:03:01;3.15;;;1.83;;
24216;SDS011;12356;49.386;8.688;2022-09-16T01:05:31;4.15;;;1.83;;
24216;SDS011;12356;49.386;8.688;2022-09-16T01:08:03;4.17;;;2.20;;
24216;SDS011;12356;49.386;8.688;2022-09-16T01:10:34;3.38;;;2.10;;
24216;SDS011;12356;49.386;8.688;2022-09-16T01:13:05;8.45;;;2.58;;
24216;SDS011;12356;49.386;8.688;2022-09-16T01:15:49;4.57;;;2.00;;
24216;SDS011;12356;49.386;8.688;2022-09-16T01:21:00;8.23;;;2.20;;
24216;SDS011;12356;49.386;8.688;2022-09-16T01:31:58;5.72;;;2.30;;
24216;SDS011;12356;49.386;8.688;2022-09-16T01:37:41;8.27;;;2.25;;
24216;SDS011;12356;49.386;8.688;2022-09-16T01:45:37;5.13;;;2.20;;
24216;SDS011;12356;49.386;8.688;2022-09-16T01:48:25;4.18;;;2.03;;
24216;SDS011;12356;49.386;8.688;2022-09-16T01:53:51;7.65;;;2.20;;
24216;SDS011;12356;49.386;8.688;2022-09-16T01:56:43;4.05;;;2.05;;
24216;SDS011;12356;49.386;8.688;2022-09-16T01:59:38;6.47;;;2.20;;
24216;SDS011;12356;49.386;8.688;2022-09-16T02:02:18;4.88;;;1.90;;
24216;SDS011;12356;49.386;8.688;2022-09-16T02:04:56;10.45;;;2.00;;
24216;SDS011;12356;49.386;8.688;2022-09-16T02:07:30;10.05;;;2.17;;
24216;SDS011;12356;49.386;8.688;2022-09-16T02:10:06;3.08;;;2.03;;
24216;SDS011;12356;49.386;8.688;2022-09-16T02:12:42;3.55;;;1.80;;
24216;SDS011;12356;49.386;8.688;2022-09-16T02:17:54;6.18;;;1.95;;
24216;SDS011;12356;49.386;8.688;2022-09-16T02:20:30;6.05;;;2.03;;
24216;SDS011;12356;49.386;8.688;2022-09-16T02:23:06;5.80;;;2.08;;
24216;SDS011;12356;49.386;8.688;2022-09-16T02:25:43;4.75;;;1.70;;
24216;SDS011;12356;49.386;8.688;2022-09-16T02:28:17;4.22;;;1.92;;
24216;SDS011;12356;49.386;8.688;2022-09-16T02:30:53;4.10;;;1.85;;
24216;SDS011;12356;49.386;8.688;2022-09-16T02:33:29;3.42;;;1.70;;
24216;SDS011;12356;49.386;8.688;2022-09-16T02:36:11;3.78;;;1.80;;
24216;SDS011;12356;49.386;8.688;2022-09-16T02:38:45;4.13;;;1.75;;
24216;SDS011;12356;49.386;8.688;2022-09-16T02:41:19;7.15;;;1.90;;
24216;SDS011;12356;49.386;8.688;2022-09-16T02:43:49;5.25;;;1.77;;
24216;SDS011;12356;49.386;8.688;2022-09-16T02:49:18;4.95;;;2.35;;
24216;SDS011;12356;49.386;8.688;2022-09-16T02:54:52;6.53;;;1.95;;
24216;SDS011;12356;49.386;8.688;2022-09-16T02:57:30;3.53;;;2.10;;
24216;SDS011;12356;49.386;8.688;2022-09-16T03:00:01;4.82;;;2.15;;
24216;SDS011;12356;49.386;8.688;2022-09-16T03:02:33;5.00;;;2.47;;
24216;SDS011;12356;49.386;8.688;2022-09-16T03:05:04;4.35;;;2.28;;
24216;SDS011;12356;49.386;8.688;2022-09-16T03:07:35;6.28;;;2.25;;
24216;SDS011;12356;49.386;8.688;2022-09-16T03:10:09;4.82;;;1.98;;
24216;SDS011;12356;49.386;8.688;2022-09-16T03:13:00;5.72;;;2.42;;
24216;SDS011;12356;49.386;8.688;2022-09-16T03:18:31;5.63;;;2.53;;
24216;SDS011;12356;49.386;8.688;2022-09-16T03:21:28;6.03;;;2.40;;
24216;SDS011;12356;49.386;8.688;2022-09-16T03:24:11;4.63;;;2.10;;
24216;SDS011;12356;49.386;8.688;2022-09-16T03:26:56;5.22;;;2.42;;
24216;SDS011;12356;49.386;8.688;2022-09-16T03:29:54;5.75;;;2.10;;
24216;SDS011;12356;49.386;8.688;2022-09-16T03:32:37;8.23;;;2.08;;
24216;SDS011;12356;49.386;8.688;2022-09-16T03:35:26;7.82;;;2.22;;
24216;SDS011;12356;49.386;8.688;2022-09-16T03:38:01;6.32;;;2.30;;
24216;SDS011;12356;49.386;8.688;2022-09-16T03:40:32;6.30;;;2.10;;
24216;SDS011;12356;49.386;8.688;2022-09-16T03:43:10;7.57;;;2.03;;
24216;SDS011;12356;49.386;8.688;2022-09-16T03:45:42;3.92;;;2.10;;
24216;SDS011;12356;49.386;8.688;2022-09-16T03:48:13;7.53;;;2.15;;
24216;SDS011;12356;49.386;8.688;2022-09-16T03:50:44;4.95;;;2.17;;
24216;SDS011;12356;49.386;8.688;2022-09-16T03:53:15;5.40;;;2.40;;
24216;SDS011;12356;49.386;8.688;2022-09-16T03:55:47;5.32;;;2.00;;
24216;SDS011;12356;49.386;8.688;2022-09-16T03:58:18;6.78;;;1.95;;
24216;SDS011;12356;49.386;8.688;2022-09-16T04:00:49;7.07;;;2.45;;
24216;SDS011;12356;49.386;8.688;2022-09-16T04:03:20;5.20;;;2.00;;
24216;SDS011;12356;49.386;8.688;2022-09-16T04:05:52;4.03;;;2.20;;
24216;SDS011;12356;49.386;8.688;2022-09-16T04:10:58;8.52;;;2.35;;
24216;SDS011;12356;49.386;8.688;2022-09-16T04:13:31;9.38;;;2.85;;
24216;SDS011;12356;49.386;8.688;2022-09-16T04:16:03;4.82;;;2.13;;
24216;SDS011;12356;49.386;8.688;2022-09-16T04:18:34;4.55;;;2.22;;
24216;SDS011;12356;49.386;8.688;2022-09-16T04:21:04;7.53;;;2.67;;
24216;SDS011;12356;49.386;8.688;2022-09-16T04:23:35;6.80;;;2.30;;
24216;SDS011;12356;49.386;8.688;2022-09-16T04:26:06;6.25;;;2.40;;
24216;SDS011;12356;49.386;8.688;2022-09-16T04:28:36;4.25;;;2.35;;
24216;SDS011;12356;49.386;8.688;2022-09-16T04:31:09;4.35;;;2.03;;
24216;SDS011;12356;49.386;8.688;2022-09-16T04:33:41;6.13;;;2.40;;
24216;SDS011;12356;49.386;8.688;2022-09-16T04:36:13;6.57;;;2.10;;
24216;SDS011;12356;49.386;8.688;2022-09-16T04:38:45;6.47;;;2.22;;
24216;SDS011;12356;49.386;8.688;2022-09-16T04:41:18;4.43;;;1.92;;
24216;SDS011;12356;49.386;8.688;2022-09-16T04:43:54;3.20;;;1.83;;
24216;SDS011;12356;49.386;8.688;2022-09-16T04:46:26;4.25;;;1.90;;
24216;SDS011;12356;49.386;8.688;2022-09-16T04:48:58;5.95;;;2.10;;
24216;SDS011;12356;49.386;8.688;2022-09-16T04:51:29;8.82;;;2.35;;
24216;SDS011;12356;49.386;8.688;2022-09-16T04:54:01;5.85;;;2.10;;
24216;SDS011;12356;49.386;8.688;2022-09-16T04:56:31;3.95;;;2.03;;
24216;SDS011;12356;49.386;8.688;2022-09-16T04:59:03;4.13;;;2.33;;
24216;SDS011;12356;49.386;8.688;2022-09-16T05:01:35;5.30;;;2.33;;
24216;SDS011;12356;49.386;8.688;2022-09-16T05:06:39;5.18;;;2.53;;
24216;SDS011;12356;49.386;8.688;2022-09-16T05:09:10;5.03;;;2.60;;
24216;SDS011;12356;49.386;8.688;2022-09-16T05:11:42;6.60;;;2.63;;
24216;SDS011;12356;49.386;8.688;2022-09-16T05:14:14;6.45;;;2.75;;
24216;SDS011;12356;49.386;8.688;2022-09-16T05:16:46;4.68;;;2.70;;
24216;SDS011;12356;49.386;8.688;2022-09-16T05:19:16;15.23;;;3.10;;
24216;SDS011;12356;49.386;8.688;2022-09-16T05:21:47;3.92;;;2.60;;
24216;SDS011;12356;49.386;8.688;2022-09-16T05:24:18;7.95;;;2.72;;
24216;SDS011;12356;49.386;8.688;2022-09-16T05:26:48;9.10;;;3.20;;
24216;SDS011;12356;49.386;8.688;2022-09-16T05:29:19;6.82;;;2.95;;
24216;SDS011;12356;49.386;8.688;2022-09-16T05:31:49;8.10;;;2.92;;
24216;SDS011;12356;49.386;8.688;2022-09-16T05:34:20;5.97;;;3.20;;
24216;SDS011;12356;49.386;8.688;2022-09-16T05:36:57;8.15;;;2.85;;
24216;SDS011;12356;49.386;8.688;2022-09-16T05:39:29;8.65;;;3.25;;
24216;SDS011;12356;49.386;8.688;2022-09-16T05:42:00;6.22;;;2.70;;
24216;SDS011;12356;49.386;8.688;2022-09-16T05:44:30;5.90;;;2.90;;
24216;SDS011;12356;49.386;8.688;2022-09-16T05:47:01;8.52;;;3.15;;
24216;SDS011;12356;49.386;8.688;2022-09-16T05:49:32;9.88;;;2.95;;
24216;SDS011;12356;49.386;8.688;2022-09-16T05:52:03;8.10;;;2.90;;
24216;SDS011;12356;49.386;8.688;2022-09-16T05:54:33;8.48;;;3.05;;
24216;SDS011;12356;49.386;8.688;2022-09-16T05:57:04;4.65;;;2.63;;
24216;SDS011;12356;49.386;8.688;2022-09-16T05:59:34;6.88;;;2.97;;
24216;SDS011;12356;49.386;8.688;2022-09-16T06:02:05;9.23;;;2.92;;
24216;SDS011;12356;49.386;8.688;2022-09-16T06:04:37;11.57;;;3.58;;
24216;SDS011;12356;49.386;8.688;2022-09-16T06:07:08;11.93;;;3.67;;
24216;SDS011;12356;49.386;8.688;2022-09-16T06:09:39;5.07;;;3.25;;
24216;SDS011;12356;49.386;8.688;2022-09-16T06:12:10;7.95;;;3.35;;
24216;SDS011;12356;49.386;8.688;2022-09-16T06:14:41;9.80;;;3.40;;
24216;SDS011;12356;49.386;8.688;2022-09-16T06:17:11;6.18;;;3.30;;
24216;SDS011;12356;49.386;8.688;2022-09-16T06:19:42;6.15;;;2.88;;
24216;SDS011;12356;49.386;8.688;2022-09-16T06:22:13;6.70;;;3.10;;
24216;SDS011;12356;49.386;8.688;2022-09-16T06:24:43;8.75;;;3.22;;
24216;SDS011;12356;49.386;8.688;2022-09-16T06:27:14;5.65;;;3.30;;
24216;SDS011;12356;49.386;8.688;2022-09-16T06:29:45;7.78;;;3.20;;
24216;SDS011;12356;49.386;8.688;2022-09-16T06:32:15;6.93;;;3.53;;
24216;SDS011;12356;49.386;8.688;2022-09-16T06:34:46;7.63;;;3.47;;
24216;SDS011;12356;49.386;8.688;2022-09-16T06:37:16;6.65;;;3.35;;
24216;SDS011;12356;49.386;8.688;2022-09-16T06:39:47;6.93;;;3.40;;
24216;SDS011;12356;49.386;8.688;2022-09-16T06:42:18;8.38;;;3.58;;
24216;SDS011;12356;49.386;8.688;2022-09-16T06:44:48;6.75;;;3.53;;
24216;SDS011;12356;49.386;8.688;2022-09-16T06:47:19;8.77;;;3.75;;
24216;SDS011;12356;49.386;8.688;2022-09-16T06:49:50;7.20;;;3.78;;
24216;SDS011;12356;49.386;8.688;2022-09-16T06:52:20;9.40;;;3.97;;
24216;SDS011;12356;49.386;8.688;2022-09-16T06:54:51;7.03;;;3.70;;
24216;SDS011;12356;49.386;8.688;2022-09-16T06:57:22;10.98;;;4.07;;
24216;SDS011;12356;49.386;8.688;2022-09-16T06:59:53;8.93;;;4.25;;
24216;SDS011;12356;49.386;8.688;2022-09-16T07:02:23;11.25;;;4.28;;
24216;SDS011;12356;49.386;8.688;2022-09-16T07:04:54;8.18;;;3.92;;
24216;SDS011;12356;49.386;8.688;2022-09-16T07:07:28;8.00;;;4.00;;
24216;SDS011;12356;49.386;8.688;2022-09-16T07:09:59;10.65;;;4.30;;
24216;SDS011;12356;49.386;8.688;2022-09-16T07:12:30;9.48;;;4.60;;
24216;SDS011;12356;49.386;8.688;2022-09-16T07:15:00;7.82;;;4.05;;
24216;SDS011;12356;49.386;8.688;2022-09-16T07:17:31;12.30;;;4.57;;
24216;SDS011;12356;49.386;8.688;2022-09-16T07:20:02;10.38;;;4.35;;
24216;SDS011;12356;49.386;8.688;2022-09-16T07:22:33;10.88;;;4.70;;
24216;SDS011;12356;49.386;8.688;2022-09-16T07:25:03;8.13;;;4.57;;
24216;SDS011;12356;49.386;8.688;2022-09-16T07:27:34;7.68;;;4.35;;
24216;SDS011;12356;49.386;8.688;2022-09-16T07:30:05;8.88;;;4.70;;
24216;SDS011;12356;49.386;8.688;2022-09-16T07:32:36;9.20;;;4.45;;
24216;SDS011;12356;49.386;8.688;2022-09-16T07:35:07;9.55;;;4.60;;
24216;SDS011;12356;49.386;8.688;2022-09-16T07:37:39;10.17;;;4.40;;
24216;SDS011;12356;49.386;8.688;2022-09-16T07:40:09;7.88;;;4.57;;
24216;SDS011;12356;49.386;8.688;2022-09-16T07:45:12;6.95;;;4.45;;
24216;SDS011;12356;49.386;8.688;2022-09-16T07:47:43;9.23;;;4.35;;
24216;SDS011;12356;49.386;8.688;2022-09-16T07:50:18;8.55;;;4.38;;
24216;SDS011;12356;49.386;8.688;2022-09-16T07:52:53;8.85;;;4.55;;
24216;SDS011;12356;49.386;8.688;2022-09-16T07:55:24;8.98;;;3.92;;
24216;SDS011;12356;49.386;8.688;2022-09-16T07:57:56;10.38;;;4.25;;
24216;SDS011;12356;49.386;8.688;2022-09-16T08:00:26;6.22;;;3.58;;
24216;SDS011;12356;49.386;8.688;2022-09-16T08:02:57;11.32;;;3.50;;
24216;SDS011;12356;49.386;8.688;2022-09-16T08:05:28;11.73;;;2.85;;
24216;SDS011;12356;49.386;8.688;2022-09-16T08:07:58;6.10;;;2.70;;
24216;SDS011;12356;49.386;8.688;2022-09-16T08:10:29;7.55;;;3.00;;
24216;SDS011;12356;49.386;8.688;2022-09-16T08:12:59;6.28;;;3.15;;
24216;SDS011;12356;49.386;8.688;2022-09-16T08:15:30;8.75;;;3.40;;
24216;SDS011;12356;49.386;8.688;2022-09-16T08:18:01;8.10;;;3.35;;
24216;SDS011;12356;49.386;8.688;2022-09-16T08:20:31;5.57;;;3.22;;
24216;SDS011;12356;49.386;8.688;2022-09-16T08:23:02;8.18;;;3.30;;
24216;SDS011;12356;49.386;8.688;2022-09-16T08:25:33;8.13;;;3.33;;
24216;SDS011;12356;49.386;8.688;2022-09-16T08:28:05;6.20;;;2.88;;
24216;SDS011;12356;49.386;8.688;2022-09-16T08:30:42;14.40;;;3.22;;
24216;SDS011;12356;49.386;8.688;2022-09-16T08:33:13;6.00;;;2.95;;
24216;SDS011;12356;49.386;8.688;2022-09-16T08:35:43;5.93;;;2.75;;
24216;SDS011;12356;49.386;8.688;2022-09-16T08:38:14;7.68;;;2.92;;
24216;SDS011;12356;49.386;8.688;2022-09-16T08:40:44;6.75;;;3.20;;
24216;SDS011;12356;49.386;8.688;2022-09-16T08:43:18;9.15;;;2.95;;
24216;SDS011;12356;49.386;8.688;2022-09-16T08:46:00;5.18;;;3.10;;
24216;SDS011;12356;49.386;8.688;2022-09-16T08:48:56;6.78;;;2.80;;
24216;SDS011;12356;49.386;8.688;2022-09-16T08:51:33;6.47;;;2.50;;
24216;SDS011;12356;49.386;8.688;2022-09-16T08:54:12;6.60;;;2.05;;
24216;SDS011;12356;49.386;8.688;2022-09-16T08:56:54;10.00;;;2.22;;
24216;SDS011;12356;49.386;8.688;2022-09-16T08:59:31;6.28;;;1.90;;
24216;SDS011;12356;49.386;8.688;2022-09-16T09:02:18;8.35;;;2.42;;
24216;SDS011;12356;49.386;8.688;2022-09-16T09:05:18;6.90;;;2.30;;
24216;SDS011;12356;49.386;8.688;2022-09-16T09:07:52;7.20;;;2.20;;
24216;SDS011;12356;49.386;8.688;2022-09-16T09:10:50;7.15;;;2.08;;
24216;SDS011;12356;49.386;8.688;2022-09-16T09:16:14;7.20;;;2.40;;
24216;SDS011;12356;49.386;8.688;2022-09-16T09:19:19;5.80;;;2.28;;
24216;SDS011;12356;49.386;8.688;2022-09-16T09:22:12;11.30;;;2.28;;
24216;SDS011;12356;49.386;8.688;2022-09-16T09:25:10;7.30;;;2.08;;
24216;SDS011;12356;49.386;8.688;2022-09-16T09:34:00;7.00;;;1.80;;
24216;SDS011;12356;49.386;8.688;2022-09-16T09:42:22;6.55;;;1.35;;
24216;SDS011;12356;49.386;8.688;2022-09-16T09:47:53;4.40;;;1.50;;
24216;SDS011;12356;49.386;8.688;2022-09-16T09:50:46;3.20;;;1.20;;
24216;SDS011;12356;49.386;8.688;2022-09-16T09:59:24;9.77;;;2.08;;
24216;SDS011;12356;49.386;8.688;2022-09-16T10:02:00;4.60;;;1.40;;
24216;SDS011;12356;49.386;8.688;2022-09-16T10:04:35;4.53;;;1.17;;
24216;SDS011;12356;49.386;8.688;2022-09-16T10:07:07;4.25;;;1.27;;
24216;SDS011;12356;49.386;8.688;2022-09-16T10:12:44;8.88;;;1.48;;
24216;SDS011;12356;49.386;8.688;2022-09-16T10:15:21;5.82;;;1.50;;
24216;SDS011;12356;49.386;8.688;2022-09-16T10:17:54;4.40;;;1.63;;
24216;SDS011;12356;49.386;8.688;2022-09-16T10:20:38;3.85;;;1.45;;
24216;SDS011;12356;49.386;8.688;2022-09-16T10:23:12;6.32;;;1.25;;
24216;SDS011;12356;49.386;8.688;2022-09-16T10:25:45;5.88;;;1.40;;
24216;SDS011;12356;49.386;8.688;2022-09-16T10:28:25;5.72;;;1.42;;
24216;SDS011;12356;49.386;8.688;2022-09-16T10:30:56;3.22;;;1.20;;
24216;SDS011;12356;49.386;8.688;2022-09-16T10:33:29;4.72;;;1.20;;
24216;SDS011;12356;49.386;8.688;2022-09-16T10:36:06;2.28;;;0.60;;
24216;SDS011;12356;49.386;8.688;2022-09-16T10:38:40;2.83;;;0.93;;
24216;SDS011;12356;49.386;8.688;2022-09-16T10:43:49;4.03;;;0.90;;
24216;SDS011;12356;49.386;8.688;2022-09-16T10:46:23;4.07;;;1.00;;
24216;SDS011;12356;49.386;8.688;2022-09-16T10:48:57;2.33;;;0.90;;
24216;SDS011;12356;49.386;8.688;2022-09-16T10:51:31;1.73;;;0.80;;
24216;SDS011;12356;49.386;8.688;2022-09-16T10:54:03;4.07;;;1.10;;
24216;SDS011;12356;49.386;8.688;2022-09-16T10:56:45;4.10;;;1.05;;
24216;SDS011;12356;49.386;8.688;2022-09-16T10:59:19;4.22;;;1.10;;
24216;SDS011;12356;49.386;8.688;2022-09-16T11:02:08;2.80;;;1.00;;
24216;SDS011;12356;49.386;8.688;2022-09-16T11:04:56;3.78;;;1.05;;
24216;SDS011;12356;49.386;8.688;2022-09-16T11:07:46;3.25;;;1.10;;
24216;SDS011;12356;49.386;8.688;2022-09-16T11:13:16;6.57;;;1.02;;
24216;SDS011;12356;49.386;8.688;2022-09-16T11:30:29;3.08;;;0.98;;
24216;SDS011;12356;49.386;8.688;2022-09-16T11:47:32;3.30;;;1.08;;
24216;SDS011;12356;49.386;8.688;2022-09-16T11:53:01;5.88;;;1.23;;
24216;SDS011;12356;49.386;8.688;2022-09-16T12:03:59;5.47;;;1.00;;
24216;SDS011;12356;49.386;8.688;2022-09-16T12:06:41;2.95;;;0.90;;
24216;SDS011;12356;49.386;8.688;2022-09-16T12:09:37;4.57;;;1.05;;
24216;SDS011;12356;49.386;8.688;2022-09-16T12:12:18;2.67;;;1.00;;
24216;SDS011;12356;49.386;8.688;2022-09-16T12:14:53;3.13;;;0.90;;
24216;SDS011;12356;49.386;8.688;2022-09-16T12:17:30;6.22;;;1.10;;
24216;SDS011;12356;49.386;8.688;2022-09-16T12:20:14;7.45;;;1.58;;
24216;SDS011;12356;49.386;8.688;2022-09-16T12:22:53;4.40;;;1.25;;
24216;SDS011;12356;49.386;8.688;2022-09-16T12:25:36;2.37;;;1.00;;
24216;SDS011;12356;49.386;8.688;2022-09-16T12:28:22;3.45;;;1.20;;
24216;SDS011;12356;49.386;8.688;2022-09-16T12:31:15;4.90;;;1.00;;
24216;SDS011;12356;49.386;8.688;2022-09-16T12:34:13;1.92;;;1.08;;
24216;SDS011;12356;49.386;8.688;2022-09-16T12:36:54;3.05;;;1.13;;
24216;SDS011;12356;49.386;8.688;2022-09-16T12:39:48;2.90;;;1.25;;
24216;SDS011;12356;49.386;8.688;2022-09-16T12:48:35;2.40;;;1.00;;
24216;SDS011;12356;49.386;8.688;2022-09-16T12:59:25;3.42;;;1.10;;
24216;SDS011;12356;49.386;8.688;2022-09-16T13:02:17;3.80;;;1.50;;
24216;SDS011;12356;49.386;8.688;2022-09-16T13:04:56;3.78;;;1.27;;
24216;SDS011;12356;49.386;8.688;2022-09-16T13:07:32;2.67;;;1.00;;
24216;SDS011;12356;49.386;8.688;2022-09-16T13:10:06;1.48;;;0.82;;
24216;SDS011;12356;49.386;8.688;2022-09-16T13:12:52;2.10;;;0.60;;
24216;SDS011;12356;49.386;8.688;2022-09-16T13:15:27;1.52;;;0.80;;
24216;SDS011;12356;49.386;8.688;2022-09-16T13:18:08;2.60;;;0.98;;
24216;SDS011;12356;49.386;8.688;2022-09-16T13:20:50;4.78;;;1.00;;
24216;SDS011;12356;49.386;8.688;2022-09-16T13:23:30;1.77;;;0.88;;
24216;SDS011;12356;49.386;8.688;2022-09-16T13:26:05;2.90;;;1.00;;
24216;SDS011;12356;49.386;8.688;2022-09-16T13:28:41;2.10;;;1.15;;
24216;SDS011;12356;49.386;8.688;2022-09-16T13:33:46;2.95;;;0.95;;
24216;SDS011;12356;49.386;8.688;2022-09-16T13:38:50;3.75;;;1.02;;
24216;SDS011;12356;49.386;8.688;2022-09-16T13:41:29;3.97;;;1.13;;
24216;SDS011;12356;49.386;8.688;2022-09-16T13:52:50;2.45;;;1.10;;
24216;SDS011;12356;49.386;8.688;2022-09-16T13:55:18;1.92;;;1.00;;
24216;SDS011;12356;49.386;8.688;2022-09-16T14:15:13;5.15;;;1.00;;
24216;SDS011;12356;49.386;8.688;2022-09-16T14:17:46;6.88;;;1.00;;
24216;SDS011;12356;49.386;8.688;2022-09-16T14:20:24;1.48;;;0.98;;
24216;SDS011;12356;49.386;8.688;2022-09-16T14:22:59;1.80;;;0.93;;
24216;SDS011;12356;49.386;8.688;2022-09-16T14:25:35;1.83;;;0.70;;
24216;SDS011;12356;49.386;8.688;2022-09-16T14:30:54;2.88;;;0.95;;
24216;SDS011;12356;49.386;8.688;2022-09-16T14:33:33;1.95;;;0.90;;
24216;SDS011;12356;49.386;8.688;2022-09-16T14:36:07;4.47;;;1.05;;
24216;SDS011;12356;49.386;8.688;2022-09-16T14:38:42;1.45;;;1.00;;
24216;SDS011;12356;49.386;8.688;2022-09-16T14:44:08;3.75;;;1.08;;
24216;SDS011;12356;49.386;8.688;2022-09-16T14:47:06;2.00;;;1.00;;
24216;SDS011;12356;49.386;8.688;2022-09-16T14:49:49;2.35;;;1.02;;
24216;SDS011;12356;49.386;8.688;2022-09-16T14:52:26;2.42;;;1.10;;
24216;SDS011;12356;49.386;8.688;2022-09-16T14:54:58;3.25;;;0.90;;
24216;SDS011;12356;49.386;8.688;2022-09-16T14:57:29;4.03;;;1.10;;
24216;SDS011;12356;49.386;8.688;2022-09-16T15:00:03;3.40;;;1.02;;
24216;SDS011;12356;49.386;8.688;2022-09-16T15:02:40;2.88;;;1.10;;
24216;SDS011;12356;49.386;8.688;2022-09-16T15:08:15;3.80;;;0.93;;
24216;SDS011;12356;49.386;8.688;2022-09-16T15:10:55;3.90;;;1.25;;
24216;SDS011;12356;49.386;8.688;2022-09-16T15:13:29;2.13;;;0.90;;
24216;SDS011;12356;49.386;8.688;2022-09-16T15:16:08;1.42;;;0.60;;
24216;SDS011;12356;49.386;8.688;2022-09-16T15:19:03;2.83;;;0.63;;
24216;SDS011;12356;49.386;8.688;2022-09-16T15:21:35;2.75;;;0.57;;
24216;SDS011;12356;49.386;8.688;2022-09-16T15:26:45;3.80;;;0.52;;
24216;SDS011;12356;49.386;8.688;2022-09-16T15:31:47;4.18;;;0.70;;
24216;SDS011;12356;49.386;8.688;2022-09-16T15:34:22;0.87;;;0.77;;
24216;SDS011;12356;49.386;8.688;2022-09-16T15:36:54;2.50;;;0.65;;
24216;SDS011;12356;49.386;8.688;2022-09-16T15:39:27;1.20;;;0.70;;
24216;SDS011;12356;49.386;8.688;2022-09-16T15:44:49;2.67;;;0.60;;
24216;SDS011;12356;49.386;8.688;2022-09-16T15:47:23;0.77;;;0.57;;
24216;SDS011;12356;49.386;8.688;2022-09-16T15:49:59;1.23;;;0.70;;
24216;SDS011;12356;49.386;8.688;2022-09-16T15:52:48;1.98;;;0.60;;
24216;SDS011;12356;49.386;8.688;2022-09-16T15:55:39;1.20;;;0.65;;
24216;SDS011;12356;49.386;8.688;2022-09-16T15:58:34;1.23;;;0.73;;
24216;SDS011;12356;49.386;8.688;2022-09-16T16:14:37;3.05;;;1.10;;
24216;SDS011;12356;49.386;8.688;2022-09-16T16:17:16;2.40;;;1.10;;
24216;SDS011;12356;49.386;8.688;2022-09-16T16:19:49;3.10;;;1.20;;
24216;SDS011;12356;49.386;8.688;2022-09-16T16:22:20;1.80;;;1.27;;
24216;SDS011;12356;49.386;8.688;2022-09-16T16:24:51;2.45;;;1.20;;
24216;SDS011;12356;49.386;8.688;2022-09-16T16:27:22;2.30;;;1.20;;
24216;SDS011;12356;49.386;8.688;2022-09-16T16:29:57;2.00;;;1.10;;
24216;SDS011;12356;49.386;8.688;2022-09-16T16:32:28;4.07;;;1.38;;
24216;SDS011;12356;49.386;8.688;2022-09-16T16:35:00;2.85;;;0.98;;
24216;SDS011;12356;49.386;8.688;2022-09-16T16:37:31;1.17;;;0.55;;
24216;SDS011;12356;49.386;8.688;2022-09-16T16:40:02;1.13;;;0.65;;
24216;SDS011;12356;49.386;8.688;2022-09-16T16:45:05;0.65;;;0.50;;
24216;SDS011;12356;49.386;8.688;2022-09-16T16:47:36;1.25;;;0.55;;
24216;SDS011;12356;49.386;8.688;2022-09-16T16:50:09;0.98;;;0.60;;
24216;SDS011;12356;49.386;8.688;2022-09-16T16:52:40;1.23;;;0.60;;
24216;SDS011;12356;49.386;8.688;2022-09-16T16:55:10;1.85;;;0.60;;
24216;SDS011;12356;49.386;8.688;2022-09-16T16:57:41;1.30;;;0.70;;
24216;SDS011;12356;49.386;8.688;2022-09-16T17:00:13;1.10;;;0.63;;
24216;SDS011;12356;49.386;8.688;2022-09-16T17:02:45;1.25;;;0.50;;
24216;SDS011;12356;49.386;8.688;2022-09-16T17:05:15;2.30;;;0.70;;
24216;SDS011;12356;49.386;8.688;2022-09-16T17:07:46;2.17;;;0.52;;
24216;SDS011;12356;49.386;8.688;2022-09-16T17:10:17;0.73;;;0.50;;
24216;SDS011;12356;49.386;8.688;2022-09-16T17:12:48;0.75;;;0.68;;
24216;SDS011;12356;49.386;8.688;2022-09-16T17:15:18;0.82;;;0.60;;
24216;SDS011;12356;49.386;8.688;2022-09-16T17:17:49;1.52;;;0.47;;
24216;SDS011;12356;49.386;8.688;2022-09-16T17:20:19;1.65;;;0.60;;
24216;SDS011;12356;49.386;8.688;2022-09-16T17:22:50;0.75;;;0.50;;
24216;SDS011;12356;49.386;8.688;2022-09-16T17:25:20;0.80;;;0.60;;
24216;SDS011;12356;49.386;8.688;2022-09-16T17:27:51;0.93;;;0.52;;
24216;SDS011;12356;49.386;8.688;2022-09-16T17:30:22;0.57;;;0.50;;
24216;SDS011;12356;49.386;8.688;2022-09-16T17:32:52;0.82;;;0.50;;
24216;SDS011;12356;49.386;8.688;2022-09-16T17:35:23;3.00;;;0.50;;
24216;SDS011;12356;49.386;8.688;2022-09-16T17:37:54;2.88;;;0.50;;
24216;SDS011;12356;49.386;8.688;2022-09-16T17:40:24;0.75;;;0.50;;
24216;SDS011;12356;49.386;8.688;2022-09-16T17:42:55;1.30;;;0.43;;
24216;SDS011;12356;49.386;8.688;2022-09-16T17:45:26;2.05;;;0.50;;
24216;SDS011;12356;49.386;8.688;2022-09-16T17:47:57;0.60;;;0.43;;
24216;SDS011;12356;49.386;8.688;2022-09-16T17:50:28;1.10;;;0.43;;
24216;SDS011;12356;49.386;8.688;2022-09-16T17:52:58;2.70;;;0.50;;
24216;SDS011;12356;49.386;8.688;2022-09-16T17:55:29;1.20;;;0.60;;
24216;SDS011;12356;49.386;8.688;2022-09-16T17:57:59;0.93;;;0.43;;
24216;SDS011;12356;49.386;8.688;2022-09-16T18:00:30;0.75;;;0.40;;
24216;SDS011;12356;49.386;8.688;2022-09-16T18:03:01;1.13;;;0.47;;
24216;SDS011;12356;49.386;8.688;2022-09-16T18:05:33;0.93;;;0.50;;
24216;SDS011;12356;49.386;8.688;2022-09-16T18:08:05;0.50;;;0.40;;
24216;SDS011;12356;49.386;8.688;2022-09-16T18:10:35;1.10;;;0.50;;
24216;SDS011;12356;49.386;8.688;2022-09-16T18:13:06;0.43;;;0.40;;
24216;SDS011;12356;49.386;8.688;2022-09-16T18:15:38;1.27;;;0.60;;
24216;SDS011;12356;49.386;8.688;2022-09-16T18:18:09;1.08;;;0.60;;
24216;SDS011;12356;49.386;8.688;2022-09-16T18:20:39;2.58;;;0.60;;
24216;SDS011;12356;49.386;8.688;2022-09-16T18:23:10;0.73;;;0.65;;
24216;SDS011;12356;49.386;8.688;2022-09-16T18:25:41;3.40;;;0.90;;
24216;SDS011;12356;49.386;8.688;2022-09-16T18:28:11;1.00;;;0.55;;
24216;SDS011;12356;49.386;8.688;2022-09-16T18:30:42;2.42;;;0.70;;
24216;SDS011;12356;49.386;8.688;2022-09-16T18:33:13;1.63;;;0.77;;
24216;SDS011;12356;49.386;8.688;2022-09-16T18:35:43;1.35;;;0.90;;
24216;SDS011;12356;49.386;8.688;2022-09-16T18:38:14;1.60;;;1.00;;
24216;SDS011;12356;49.386;8.688;2022-09-16T18:40:46;2.65;;;0.80;;
24216;SDS011;12356;49.386;8.688;2022-09-16T18:43:17;1.15;;;0.63;;
24216;SDS011;12356;49.386;8.688;2022-09-16T18:45:48;1.05;;;0.57;;
24216;SDS011;12356;49.386;8.688;2022-09-16T18:48:18;2.05;;;0.70;;